sensor_id;sensor_type;location;lat;lon;timestamp;P1;durP1;ratioP1;P2;durP2;ratioP2
20283;SDS011;10301;50.832;4.080;2023-04-21T00:02:02;18.43;;;12.17;;
20283;SDS011;10301;50.832;4.080;2023-04-21T00:04:27;18.27;;;12.33;;
20283;SDS011;10301;50.832;4.080;2023-04-21T00:06:53;20.60;;;13.53;;
20283;SDS011;10301;50.832;4.080;2023-04-21T00:09:19;18.43;;;12.07;;
20283;SDS011;10301;50.832;4.080;2023-04-21T00:11:45;17.47;;;11.67;;
20283;SDS011;10301;50.832;4.080;2023-04-21T00:14:11;21.63;;;12.17;;
20283;SDS011;10301;50.832;4.080;2023-04-21T00:16:37;19.13;;;12.40;;
20283;SDS011;10301;50.832;4.080;2023-04-21T00:19:03;20.30;;;12.40;;
20283;SDS011;10301;50.832;4.080;2023-04-21T00:21:31;18.80;;;12.60;;
20283;SDS011;10301;50.832;4.080;2023-04-21T00:23:57;19.33;;;12.80;;
20283;SDS011;10301;50.832;4.080;2023-04-21T00:26:23;19.83;;;11.80;;
20283;SDS011;10301;50.832;4.080;2023-04-21T00:28:49;20.43;;;11.63;;
20283;SDS011;10301;50.832;4.080;2023-04-21T00:31:14;18.50;;;12.23;;
20283;SDS011;10301;50.832;4.080;2023-04-21T00:33:40;17.63;;;11.73;;
20283;SDS011;10301;50.832;4.080;2023-04-21T00:36:06;17.80;;;11.20;;
20283;SDS011;10301;50.832;4.080;2023-04-21T00:38:32;20.27;;;12.00;;
20283;SDS011;10301;50.832;4.080;2023-04-21T00:40:57;17.70;;;11.33;;
20283;SDS011;10301;50.832;4.080;2023-04-21T00:43:23;18.57;;;12.07;;
20283;SDS011;10301;50.832;4.080;2023-04-21T00:45:51;16.03;;;11.27;;
20283;SDS011;10301;50.832;4.080;2023-04-21T00:48:17;16.37;;;11.27;;
20283;SDS011;10301;50.832;4.080;2023-04-21T00:50:43;18.67;;;12.03;;
20283;SDS011;10301;50.832;4.080;2023-04-21T00:53:09;17.80;;;11.67;;
20283;SDS011;10301;50.832;4.080;2023-04-21T00:55:36;19.23;;;12.47;;
20283;SDS011;10301;50.832;4.080;2023-04-21T00:58:02;18.37;;;11.80;;
20283;SDS011;10301;50.832;4.080;2023-04-21T01:00:28;19.20;;;12.40;;
20283;SDS011;10301;50.832;4.080;2023-04-21T01:02:54;21.40;;;12.57;;
20283;SDS011;10301;50.832;4.080;2023-04-21T01:05:20;17.53;;;11.90;;
20283;SDS011;10301;50.832;4.080;2023-04-21T01:07:47;18.60;;;12.70;;
20283;SDS011;10301;50.832;4.080;2023-04-21T01:10:13;19.00;;;12.60;;
20283;SDS011;10301;50.832;4.080;2023-04-21T01:12:45;19.87;;;12.33;;
20283;SDS011;10301;50.832;4.080;2023-04-21T01:15:12;19.30;;;12.40;;
20283;SDS011;10301;50.832;4.080;2023-04-21T01:17:39;18.37;;;11.80;;
20283;SDS011;10301;50.832;4.080;2023-04-21T01:20:10;16.93;;;11.43;;
20283;SDS011;10301;50.832;4.080;2023-04-21T01:22:37;16.77;;;11.90;;
20283;SDS011;10301;50.832;4.080;2023-04-21T01:25:05;17.97;;;11.90;;
20283;SDS011;10301;50.832;4.080;2023-04-21T01:27:32;18.63;;;12.73;;
20283;SDS011;10301;50.832;4.080;2023-04-21T01:29:58;18.43;;;13.00;;
20283;SDS011;10301;50.832;4.080;2023-04-21T01:32:25;20.20;;;12.77;;
20283;SDS011;10301;50.832;4.080;2023-04-21T01:34:56;18.90;;;12.93;;
20283;SDS011;10301;50.832;4.080;2023-04-21T01:37:24;19.77;;;13.03;;
20283;SDS011;10301;50.832;4.080;2023-04-21T01:39:53;20.37;;;13.10;;
20283;SDS011;10301;50.832;4.080;2023-04-21T01:42:21;19.97;;;13.33;;
20283;SDS011;10301;50.832;4.080;2023-04-21T01:44:49;23.03;;;13.77;;
20283;SDS011;10301;50.832;4.080;2023-04-21T01:47:15;20.10;;;13.43;;
20283;SDS011;10301;50.832;4.080;2023-04-21T01:49:41;19.70;;;13.37;;
20283;SDS011;10301;50.832;4.080;2023-04-21T01:52:07;22.77;;;14.77;;
20283;SDS011;10301;50.832;4.080;2023-04-21T01:54:33;21.07;;;14.63;;
20283;SDS011;10301;50.832;4.080;2023-04-21T01:56:59;23.00;;;14.60;;
20283;SDS011;10301;50.832;4.080;2023-04-21T01:59:26;21.33;;;14.70;;
20283;SDS011;10301;50.832;4.080;2023-04-21T02:01:52;24.67;;;15.10;;
20283;SDS011;10301;50.832;4.080;2023-04-21T02:04:17;23.53;;;15.83;;
20283;SDS011;10301;50.832;4.080;2023-04-21T02:06:43;23.23;;;15.97;;
20283;SDS011;10301;50.832;4.080;2023-04-21T02:09:09;26.07;;;17.33;;
20283;SDS011;10301;50.832;4.080;2023-04-21T02:11:34;24.77;;;16.57;;
20283;SDS011;10301;50.832;4.080;2023-04-21T02:14:00;24.40;;;15.97;;
20283;SDS011;10301;50.832;4.080;2023-04-21T02:16:26;27.57;;;18.23;;
20283;SDS011;10301;50.832;4.080;2023-04-21T02:18:52;26.57;;;16.87;;
20283;SDS011;10301;50.832;4.080;2023-04-21T02:21:18;26.17;;;16.93;;
20283;SDS011;10301;50.832;4.080;2023-04-21T02:23:47;28.57;;;18.03;;
20283;SDS011;10301;50.832;4.080;2023-04-21T02:26:13;28.67;;;17.83;;
20283;SDS011;10301;50.832;4.080;2023-04-21T02:28:39;29.93;;;18.63;;
20283;SDS011;10301;50.832;4.080;2023-04-21T02:31:05;31.40;;;20.07;;
20283;SDS011;10301;50.832;4.080;2023-04-21T02:33:31;30.13;;;18.70;;
20283;SDS011;10301;50.832;4.080;2023-04-21T02:35:56;29.83;;;18.80;;
20283;SDS011;10301;50.832;4.080;2023-04-21T02:38:22;27.43;;;17.93;;
20283;SDS011;10301;50.832;4.080;2023-04-21T02:40:48;30.73;;;19.27;;
20283;SDS011;10301;50.832;4.080;2023-04-21T02:43:14;31.73;;;20.40;;
20283;SDS011;10301;50.832;4.080;2023-04-21T02:45:40;33.37;;;20.73;;
20283;SDS011;10301;50.832;4.080;2023-04-21T02:48:06;31.80;;;20.10;;
20283;SDS011;10301;50.832;4.080;2023-04-21T02:50:32;32.00;;;21.20;;
20283;SDS011;10301;50.832;4.080;2023-04-21T02:52:57;35.40;;;21.87;;
20283;SDS011;10301;50.832;4.080;2023-04-21T02:55:23;36.57;;;22.27;;
20283;SDS011;10301;50.832;4.080;2023-04-21T02:57:49;34.30;;;21.63;;
20283;SDS011;10301;50.832;4.080;2023-04-21T03:00:15;36.50;;;22.70;;
20283;SDS011;10301;50.832;4.080;2023-04-21T03:02:41;38.10;;;22.47;;
20283;SDS011;10301;50.832;4.080;2023-04-21T03:05:08;37.60;;;23.60;;
20283;SDS011;10301;50.832;4.080;2023-04-21T03:07:34;35.20;;;22.70;;
20283;SDS011;10301;50.832;4.080;2023-04-21T03:10:00;40.53;;;23.97;;
20283;SDS011;10301;50.832;4.080;2023-04-21T03:12:26;39.47;;;23.70;;
20283;SDS011;10301;50.832;4.080;2023-04-21T03:14:51;40.27;;;24.00;;
20283;SDS011;10301;50.832;4.080;2023-04-21T03:17:17;44.37;;;26.03;;
20283;SDS011;10301;50.832;4.080;2023-04-21T03:19:43;40.00;;;24.90;;
20283;SDS011;10301;50.832;4.080;2023-04-21T03:22:08;36.70;;;24.03;;
20283;SDS011;10301;50.832;4.080;2023-04-21T03:24:34;42.07;;;25.83;;
20283;SDS011;10301;50.832;4.080;2023-04-21T03:27:00;45.17;;;26.37;;
20283;SDS011;10301;50.832;4.080;2023-04-21T03:29:26;43.63;;;27.07;;
20283;SDS011;10301;50.832;4.080;2023-04-21T03:31:52;44.20;;;26.93;;
20283;SDS011;10301;50.832;4.080;2023-04-21T03:34:17;43.63;;;26.53;;
20283;SDS011;10301;50.832;4.080;2023-04-21T03:36:43;46.67;;;26.90;;
20283;SDS011;10301;50.832;4.080;2023-04-21T03:39:09;48.00;;;27.27;;
20283;SDS011;10301;50.832;4.080;2023-04-21T03:41:35;48.60;;;29.10;;
20283;SDS011;10301;50.832;4.080;2023-04-21T03:44:00;45.37;;;27.37;;
20283;SDS011;10301;50.832;4.080;2023-04-21T03:46:26;51.10;;;29.10;;
20283;SDS011;10301;50.832;4.080;2023-04-21T03:48:52;48.53;;;28.83;;
20283;SDS011;10301;50.832;4.080;2023-04-21T03:51:17;51.33;;;30.03;;
20283;SDS011;10301;50.832;4.080;2023-04-21T03:53:43;51.03;;;31.07;;
20283;SDS011;10301;50.832;4.080;2023-04-21T03:56:09;52.83;;;29.87;;
20283;SDS011;10301;50.832;4.080;2023-04-21T03:58:34;50.83;;;30.67;;
20283;SDS011;10301;50.832;4.080;2023-04-21T04:01:00;56.70;;;31.07;;
20283;SDS011;10301;50.832;4.080;2023-04-21T04:03:26;54.07;;;31.27;;
20283;SDS011;10301;50.832;4.080;2023-04-21T04:05:52;55.20;;;31.60;;
20283;SDS011;10301;50.832;4.080;2023-04-21T04:08:17;54.03;;;30.40;;
20283;SDS011;10301;50.832;4.080;2023-04-21T04:10:43;53.03;;;31.17;;
20283;SDS011;10301;50.832;4.080;2023-04-21T04:13:09;54.93;;;31.77;;
20283;SDS011;10301;50.832;4.080;2023-04-21T04:15:34;52.50;;;32.63;;
20283;SDS011;10301;50.832;4.080;2023-04-21T04:18:00;55.27;;;31.37;;
20283;SDS011;10301;50.832;4.080;2023-04-21T04:20:26;56.67;;;32.13;;
20283;SDS011;10301;50.832;4.080;2023-04-21T04:22:51;55.77;;;32.60;;
20283;SDS011;10301;50.832;4.080;2023-04-21T04:25:17;57.53;;;33.27;;
20283;SDS011;10301;50.832;4.080;2023-04-21T04:27:43;64.20;;;35.47;;
20283;SDS011;10301;50.832;4.080;2023-04-21T04:30:10;62.60;;;33.83;;
20283;SDS011;10301;50.832;4.080;2023-04-21T04:32:37;61.53;;;34.00;;
20283;SDS011;10301;50.832;4.080;2023-04-21T04:35:07;64.00;;;35.03;;
20283;SDS011;10301;50.832;4.080;2023-04-21T04:37:36;59.27;;;33.60;;
20283;SDS011;10301;50.832;4.080;2023-04-21T04:40:03;70.17;;;38.37;;
20283;SDS011;10301;50.832;4.080;2023-04-21T04:42:31;62.23;;;33.97;;
20283;SDS011;10301;50.832;4.080;2023-04-21T04:44:57;64.40;;;35.53;;
20283;SDS011;10301;50.832;4.080;2023-04-21T04:47:23;66.17;;;35.80;;
20283;SDS011;10301;50.832;4.080;2023-04-21T04:49:49;62.33;;;35.57;;
20283;SDS011;10301;50.832;4.080;2023-04-21T04:52:15;65.43;;;36.87;;
20283;SDS011;10301;50.832;4.080;2023-04-21T04:54:40;64.70;;;36.27;;
20283;SDS011;10301;50.832;4.080;2023-04-21T04:57:06;65.40;;;37.27;;
20283;SDS011;10301;50.832;4.080;2023-04-21T04:59:32;69.90;;;36.57;;
20283;SDS011;10301;50.832;4.080;2023-04-21T05:01:58;63.10;;;35.27;;
20283;SDS011;10301;50.832;4.080;2023-04-21T05:04:24;65.67;;;36.20;;
20283;SDS011;10301;50.832;4.080;2023-04-21T05:06:49;59.17;;;35.07;;
20283;SDS011;10301;50.832;4.080;2023-04-21T05:09:16;66.23;;;36.00;;
20283;SDS011;10301;50.832;4.080;2023-04-21T05:11:41;63.97;;;34.77;;
20283;SDS011;10301;50.832;4.080;2023-04-21T05:14:07;66.83;;;36.00;;
20283;SDS011;10301;50.832;4.080;2023-04-21T05:16:33;61.60;;;35.03;;
20283;SDS011;10301;50.832;4.080;2023-04-21T05:19:02;64.27;;;35.13;;
20283;SDS011;10301;50.832;4.080;2023-04-21T05:21:28;64.93;;;36.87;;
20283;SDS011;10301;50.832;4.080;2023-04-21T05:23:55;60.97;;;34.80;;
20283;SDS011;10301;50.832;4.080;2023-04-21T05:26:22;60.23;;;35.30;;
20283;SDS011;10301;50.832;4.080;2023-04-21T05:28:51;65.23;;;34.53;;
20283;SDS011;10301;50.832;4.080;2023-04-21T05:31:17;60.77;;;34.30;;
20283;SDS011;10301;50.832;4.080;2023-04-21T05:33:43;58.27;;;34.17;;
20283;SDS011;10301;50.832;4.080;2023-04-21T05:36:09;60.97;;;34.57;;
20283;SDS011;10301;50.832;4.080;2023-04-21T05:38:35;54.93;;;31.37;;
20283;SDS011;10301;50.832;4.080;2023-04-21T05:41:02;60.37;;;33.47;;
20283;SDS011;10301;50.832;4.080;2023-04-21T05:43:28;56.23;;;32.83;;
20283;SDS011;10301;50.832;4.080;2023-04-21T05:45:54;55.43;;;31.43;;
20283;SDS011;10301;50.832;4.080;2023-04-21T05:48:19;56.07;;;31.07;;
20283;SDS011;10301;50.832;4.080;2023-04-21T05:50:45;55.00;;;31.87;;
20283;SDS011;10301;50.832;4.080;2023-04-21T05:53:10;53.67;;;31.47;;
20283;SDS011;10301;50.832;4.080;2023-04-21T05:55:36;53.13;;;31.57;;
20283;SDS011;10301;50.832;4.080;2023-04-21T05:58:02;56.57;;;31.80;;
20283;SDS011;10301;50.832;4.080;2023-04-21T06:00:28;59.23;;;32.40;;
20283;SDS011;10301;50.832;4.080;2023-04-21T06:02:54;56.40;;;31.80;;
20283;SDS011;10301;50.832;4.080;2023-04-21T06:05:20;52.67;;;31.13;;
20283;SDS011;10301;50.832;4.080;2023-04-21T06:07:46;54.77;;;31.50;;
20283;SDS011;10301;50.832;4.080;2023-04-21T06:10:12;53.27;;;30.30;;
20283;SDS011;10301;50.832;4.080;2023-04-21T06:12:38;47.93;;;29.10;;
20283;SDS011;10301;50.832;4.080;2023-04-21T06:15:04;50.87;;;30.27;;
20283;SDS011;10301;50.832;4.080;2023-04-21T06:17:30;51.60;;;31.17;;
20283;SDS011;10301;50.832;4.080;2023-04-21T06:19:56;49.30;;;29.30;;
20283;SDS011;10301;50.832;4.080;2023-04-21T06:22:22;46.67;;;28.90;;
20283;SDS011;10301;50.832;4.080;2023-04-21T06:24:48;47.30;;;29.00;;
20283;SDS011;10301;50.832;4.080;2023-04-21T06:27:14;45.20;;;27.77;;
20283;SDS011;10301;50.832;4.080;2023-04-21T06:29:40;44.23;;;27.13;;
20283;SDS011;10301;50.832;4.080;2023-04-21T06:32:06;40.23;;;25.60;;
20283;SDS011;10301;50.832;4.080;2023-04-21T06:34:33;37.90;;;24.03;;
20283;SDS011;10301;50.832;4.080;2023-04-21T06:36:59;38.33;;;22.50;;
20283;SDS011;10301;50.832;4.080;2023-04-21T06:39:25;37.50;;;22.97;;
20283;SDS011;10301;50.832;4.080;2023-04-21T06:41:52;39.47;;;23.63;;
20283;SDS011;10301;50.832;4.080;2023-04-21T06:44:18;39.73;;;25.13;;
20283;SDS011;10301;50.832;4.080;2023-04-21T06:46:44;35.23;;;22.23;;
20283;SDS011;10301;50.832;4.080;2023-04-21T06:49:11;36.87;;;24.20;;
20283;SDS011;10301;50.832;4.080;2023-04-21T06:51:36;36.90;;;24.03;;
20283;SDS011;10301;50.832;4.080;2023-04-21T06:54:02;35.37;;;22.43;;
20283;SDS011;10301;50.832;4.080;2023-04-21T06:56:29;35.37;;;22.97;;
20283;SDS011;10301;50.832;4.080;2023-04-21T06:58:55;33.30;;;22.60;;
20283;SDS011;10301;50.832;4.080;2023-04-21T07:01:21;32.57;;;22.33;;
20283;SDS011;10301;50.832;4.080;2023-04-21T07:03:50;35.97;;;22.53;;
20283;SDS011;10301;50.832;4.080;2023-04-21T07:06:16;31.57;;;20.93;;
20283;SDS011;10301;50.832;4.080;2023-04-21T07:08:41;34.40;;;22.50;;
20283;SDS011;10301;50.832;4.080;2023-04-21T07:11:07;29.37;;;20.40;;
20283;SDS011;10301;50.832;4.080;2023-04-21T07:13:33;34.00;;;21.87;;
20283;SDS011;10301;50.832;4.080;2023-04-21T07:15:58;32.70;;;21.43;;
20283;SDS011;10301;50.832;4.080;2023-04-21T07:18:24;29.50;;;19.83;;
20283;SDS011;10301;50.832;4.080;2023-04-21T07:20:50;28.53;;;19.40;;
20283;SDS011;10301;50.832;4.080;2023-04-21T07:23:16;28.77;;;19.83;;
20283;SDS011;10301;50.832;4.080;2023-04-21T07:25:42;28.57;;;19.07;;
20283;SDS011;10301;50.832;4.080;2023-04-21T07:28:08;31.80;;;20.33;;
20283;SDS011;10301;50.832;4.080;2023-04-21T07:30:35;31.87;;;19.90;;
20283;SDS011;10301;50.832;4.080;2023-04-21T07:33:00;30.77;;;19.90;;
20283;SDS011;10301;50.832;4.080;2023-04-21T07:35:26;30.40;;;20.63;;
20283;SDS011;10301;50.832;4.080;2023-04-21T07:37:52;28.90;;;18.17;;
20283;SDS011;10301;50.832;4.080;2023-04-21T07:40:18;27.80;;;18.60;;
20283;SDS011;10301;50.832;4.080;2023-04-21T07:42:43;26.40;;;17.70;;
20283;SDS011;10301;50.832;4.080;2023-04-21T07:45:09;25.27;;;17.53;;
20283;SDS011;10301;50.832;4.080;2023-04-21T07:47:35;25.87;;;17.57;;
20283;SDS011;10301;50.832;4.080;2023-04-21T07:50:01;27.80;;;17.67;;
20283;SDS011;10301;50.832;4.080;2023-04-21T07:52:27;25.60;;;16.70;;
20283;SDS011;10301;50.832;4.080;2023-04-21T07:54:52;26.60;;;17.10;;
20283;SDS011;10301;50.832;4.080;2023-04-21T07:57:18;25.20;;;16.02;;
20283;SDS011;10301;50.832;4.080;2023-04-21T07:59:44;25.00;;;16.13;;
20283;SDS011;10301;50.832;4.080;2023-04-21T08:02:09;24.73;;;16.25;;
20283;SDS011;10301;50.832;4.080;2023-04-21T08:04:35;23.25;;;15.55;;
20283;SDS011;10301;50.832;4.080;2023-04-21T08:07:01;22.63;;;14.73;;
20283;SDS011;10301;50.832;4.080;2023-04-21T08:09:27;23.58;;;14.95;;
20283;SDS011;10301;50.832;4.080;2023-04-21T08:11:52;23.92;;;15.52;;
20283;SDS011;10301;50.832;4.080;2023-04-21T08:14:20;22.17;;;15.43;;
20283;SDS011;10301;50.832;4.080;2023-04-21T08:16:46;23.20;;;15.73;;
20283;SDS011;10301;50.832;4.080;2023-04-21T08:19:12;21.23;;;14.75;;
20283;SDS011;10301;50.832;4.080;2023-04-21T08:21:38;22.23;;;14.38;;
20283;SDS011;10301;50.832;4.080;2023-04-21T08:24:03;20.35;;;14.63;;
20283;SDS011;10301;50.832;4.080;2023-04-21T08:26:29;19.50;;;13.52;;
20283;SDS011;10301;50.832;4.080;2023-04-21T08:28:57;19.58;;;13.82;;
20283;SDS011;10301;50.832;4.080;2023-04-21T08:31:24;22.42;;;14.82;;
20283;SDS011;10301;50.832;4.080;2023-04-21T08:33:50;20.52;;;13.88;;
20283;SDS011;10301;50.832;4.080;2023-04-21T08:36:16;20.23;;;13.70;;
20283;SDS011;10301;50.832;4.080;2023-04-21T08:38:42;19.73;;;13.27;;
20283;SDS011;10301;50.832;4.080;2023-04-21T08:41:11;19.38;;;13.52;;
20283;SDS011;10301;50.832;4.080;2023-04-21T08:43:37;19.35;;;13.25;;
20283;SDS011;10301;50.832;4.080;2023-04-21T08:46:07;20.52;;;13.45;;
20283;SDS011;10301;50.832;4.080;2023-04-21T08:48:36;20.60;;;13.60;;
20283;SDS011;10301;50.832;4.080;2023-04-21T08:51:03;18.42;;;12.68;;
20283;SDS011;10301;50.832;4.080;2023-04-21T08:53:35;18.73;;;13.15;;
20283;SDS011;10301;50.832;4.080;2023-04-21T08:56:01;19.10;;;13.57;;
20283;SDS011;10301;50.832;4.080;2023-04-21T08:58:28;18.02;;;12.98;;
20283;SDS011;10301;50.832;4.080;2023-04-21T09:00:53;17.30;;;12.27;;
20283;SDS011;10301;50.832;4.080;2023-04-21T09:03:23;22.40;;;12.95;;
20283;SDS011;10301;50.832;4.080;2023-04-21T09:06:05;19.23;;;13.32;;
20283;SDS011;10301;50.832;4.080;2023-04-21T09:08:32;19.70;;;13.30;;
20283;SDS011;10301;50.832;4.080;2023-04-21T09:11:01;20.38;;;12.32;;
20283;SDS011;10301;50.832;4.080;2023-04-21T09:13:34;18.77;;;12.50;;
20283;SDS011;10301;50.832;4.080;2023-04-21T09:16:01;18.52;;;11.85;;
20283;SDS011;10301;50.832;4.080;2023-04-21T09:18:29;18.65;;;12.77;;
20283;SDS011;10301;50.832;4.080;2023-04-21T09:21:11;18.90;;;12.82;;
20283;SDS011;10301;50.832;4.080;2023-04-21T09:26:13;20.75;;;13.27;;
20283;SDS011;10301;50.832;4.080;2023-04-21T09:28:43;17.48;;;12.95;;
20283;SDS011;10301;50.832;4.080;2023-04-21T09:31:14;15.57;;;10.80;;
20283;SDS011;10301;50.832;4.080;2023-04-21T09:33:48;18.98;;;11.73;;
20283;SDS011;10301;50.832;4.080;2023-04-21T09:36:19;18.67;;;11.48;;
20283;SDS011;10301;50.832;4.080;2023-04-21T09:38:49;17.13;;;12.25;;
20283;SDS011;10301;50.832;4.080;2023-04-21T09:41:20;17.13;;;12.02;;
20283;SDS011;10301;50.832;4.080;2023-04-21T09:43:49;17.52;;;12.07;;
20283;SDS011;10301;50.832;4.080;2023-04-21T09:46:15;18.25;;;12.40;;
20283;SDS011;10301;50.832;4.080;2023-04-21T09:48:42;19.15;;;12.80;;
20283;SDS011;10301;50.832;4.080;2023-04-21T09:51:12;16.08;;;11.63;;
20283;SDS011;10301;50.832;4.080;2023-04-21T09:53:40;15.90;;;11.38;;
20283;SDS011;10301;50.832;4.080;2023-04-21T09:56:10;16.80;;;11.00;;
20283;SDS011;10301;50.832;4.080;2023-04-21T09:58:45;16.27;;;11.52;;
20283;SDS011;10301;50.832;4.080;2023-04-21T10:01:13;18.92;;;12.00;;
20283;SDS011;10301;50.832;4.080;2023-04-21T10:03:39;15.68;;;11.77;;
20283;SDS011;10301;50.832;4.080;2023-04-21T10:06:06;16.52;;;11.85;;
20283;SDS011;10301;50.832;4.080;2023-04-21T10:08:32;14.48;;;10.70;;
20283;SDS011;10301;50.832;4.080;2023-04-21T10:11:00;18.90;;;11.57;;
20283;SDS011;10301;50.832;4.080;2023-04-21T10:13:26;16.17;;;11.40;;
20283;SDS011;10301;50.832;4.080;2023-04-21T10:16:05;16.67;;;12.13;;
20283;SDS011;10301;50.832;4.080;2023-04-21T10:18:35;14.88;;;11.07;;
20283;SDS011;10301;50.832;4.080;2023-04-21T10:23:32;18.60;;;11.40;;
20283;SDS011;10301;50.832;4.080;2023-04-21T10:29:07;14.70;;;10.77;;
20283;SDS011;10301;50.832;4.080;2023-04-21T10:39:11;14.85;;;10.63;;
20283;SDS011;10301;50.832;4.080;2023-04-21T10:41:49;15.02;;;10.55;;
20283;SDS011;10301;50.832;4.080;2023-04-21T10:44:15;15.52;;;11.13;;
20283;SDS011;10301;50.832;4.080;2023-04-21T10:46:48;17.30;;;11.82;;
20283;SDS011;10301;50.832;4.080;2023-04-21T10:49:25;13.73;;;10.38;;
20283;SDS011;10301;50.832;4.080;2023-04-21T10:54:28;19.40;;;10.32;;
20283;SDS011;10301;50.832;4.080;2023-04-21T10:56:56;14.63;;;9.65;;
20283;SDS011;10301;50.832;4.080;2023-04-21T10:59:23;14.13;;;9.05;;
20283;SDS011;10301;50.832;4.080;2023-04-21T11:01:50;13.10;;;9.18;;
20283;SDS011;10301;50.832;4.080;2023-04-21T11:04:17;13.07;;;9.35;;
20283;SDS011;10301;50.832;4.080;2023-04-21T11:09:29;11.45;;;8.02;;
20283;SDS011;10301;50.832;4.080;2023-04-21T11:11:58;11.57;;;7.38;;
20283;SDS011;10301;50.832;4.080;2023-04-21T11:14:45;11.73;;;7.72;;
20283;SDS011;10301;50.832;4.080;2023-04-21T11:17:16;12.65;;;8.43;;
20283;SDS011;10301;50.832;4.080;2023-04-21T11:19:44;14.05;;;9.10;;
20283;SDS011;10301;50.832;4.080;2023-04-21T11:22:16;13.98;;;9.38;;
20283;SDS011;10301;50.832;4.080;2023-04-21T11:24:46;14.48;;;9.45;;
20283;SDS011;10301;50.832;4.080;2023-04-21T11:27:12;13.90;;;9.27;;
20283;SDS011;10301;50.832;4.080;2023-04-21T11:29:39;12.60;;;8.88;;
20283;SDS011;10301;50.832;4.080;2023-04-21T11:32:06;15.00;;;10.18;;
20283;SDS011;10301;50.832;4.080;2023-04-21T11:34:32;12.40;;;8.18;;
20283;SDS011;10301;50.832;4.080;2023-04-21T11:37:00;14.15;;;9.30;;
20283;SDS011;10301;50.832;4.080;2023-04-21T11:39:26;14.25;;;10.98;;
20283;SDS011;10301;50.832;4.080;2023-04-21T11:41:51;16.52;;;10.32;;
20283;SDS011;10301;50.832;4.080;2023-04-21T11:46:55;14.57;;;9.77;;
20283;SDS011;10301;50.832;4.080;2023-04-21T11:49:23;13.07;;;8.75;;
20283;SDS011;10301;50.832;4.080;2023-04-21T11:51:50;12.52;;;9.20;;
20283;SDS011;10301;50.832;4.080;2023-04-21T11:54:16;13.07;;;9.20;;
20283;SDS011;10301;50.832;4.080;2023-04-21T11:56:45;14.52;;;9.13;;
20283;SDS011;10301;50.832;4.080;2023-04-21T11:59:12;15.52;;;9.02;;
20283;SDS011;10301;50.832;4.080;2023-04-21T12:01:43;14.95;;;10.27;;
20283;SDS011;10301;50.832;4.080;2023-04-21T12:04:16;15.25;;;9.52;;
20283;SDS011;10301;50.832;4.080;2023-04-21T12:06:44;13.85;;;9.27;;
20283;SDS011;10301;50.832;4.080;2023-04-21T12:09:17;13.50;;;9.52;;
20283;SDS011;10301;50.832;4.080;2023-04-21T12:11:47;15.88;;;9.85;;
20283;SDS011;10301;50.832;4.080;2023-04-21T12:14:14;12.02;;;9.02;;
20283;SDS011;10301;50.832;4.080;2023-04-21T12:16:41;13.27;;;8.85;;
20283;SDS011;10301;50.832;4.080;2023-04-21T12:19:06;11.70;;;8.35;;
20283;SDS011;10301;50.832;4.080;2023-04-21T12:21:35;13.13;;;8.90;;
20283;SDS011;10301;50.832;4.080;2023-04-21T12:24:02;13.10;;;8.43;;
20283;SDS011;10301;50.832;4.080;2023-04-21T12:26:28;10.68;;;7.82;;
20283;SDS011;10301;50.832;4.080;2023-04-21T12:28:54;13.75;;;7.43;;
20283;SDS011;10301;50.832;4.080;2023-04-21T12:31:20;13.32;;;8.30;;
20283;SDS011;10301;50.832;4.080;2023-04-21T12:33:45;14.27;;;8.32;;
20283;SDS011;10301;50.832;4.080;2023-04-21T12:36:11;11.38;;;6.72;;
20283;SDS011;10301;50.832;4.080;2023-04-21T12:38:37;10.85;;;6.50;;
20283;SDS011;10301;50.832;4.080;2023-04-21T12:41:03;12.05;;;7.25;;
20283;SDS011;10301;50.832;4.080;2023-04-21T12:43:29;9.45;;;6.47;;
20283;SDS011;10301;50.832;4.080;2023-04-21T12:45:56;10.43;;;6.35;;
20283;SDS011;10301;50.832;4.080;2023-04-21T12:48:21;10.70;;;6.68;;
20283;SDS011;10301;50.832;4.080;2023-04-21T12:50:48;10.95;;;6.78;;
20283;SDS011;10301;50.832;4.080;2023-04-21T12:53:16;8.73;;;5.95;;
20283;SDS011;10301;50.832;4.080;2023-04-21T12:55:42;8.38;;;6.18;;
20283;SDS011;10301;50.832;4.080;2023-04-21T12:58:07;11.52;;;6.65;;
20283;SDS011;10301;50.832;4.080;2023-04-21T13:00:33;9.15;;;6.60;;
20283;SDS011;10301;50.832;4.080;2023-04-21T13:03:00;9.43;;;5.85;;
20283;SDS011;10301;50.832;4.080;2023-04-21T13:05:26;10.20;;;5.72;;
20283;SDS011;10301;50.832;4.080;2023-04-21T13:07:52;11.65;;;6.20;;
20283;SDS011;10301;50.832;4.080;2023-04-21T13:10:19;14.65;;;6.50;;
20283;SDS011;10301;50.832;4.080;2023-04-21T13:12:45;9.18;;;6.20;;
20283;SDS011;10301;50.832;4.080;2023-04-21T13:15:11;9.40;;;6.50;;
20283;SDS011;10301;50.832;4.080;2023-04-21T13:17:36;9.32;;;6.03;;
20283;SDS011;10301;50.832;4.080;2023-04-21T13:20:02;8.40;;;5.82;;
20283;SDS011;10301;50.832;4.080;2023-04-21T13:22:28;10.10;;;6.32;;
20283;SDS011;10301;50.832;4.080;2023-04-21T13:24:54;10.63;;;6.65;;
20283;SDS011;10301;50.832;4.080;2023-04-21T13:27:20;9.65;;;6.13;;
20283;SDS011;10301;50.832;4.080;2023-04-21T13:29:45;8.25;;;5.68;;
20283;SDS011;10301;50.832;4.080;2023-04-21T13:32:11;10.65;;;6.50;;
20283;SDS011;10301;50.832;4.080;2023-04-21T13:34:37;8.63;;;6.35;;
20283;SDS011;10301;50.832;4.080;2023-04-21T13:37:03;11.10;;;6.63;;
20283;SDS011;10301;50.832;4.080;2023-04-21T13:39:29;9.85;;;6.57;;
20283;SDS011;10301;50.832;4.080;2023-04-21T13:41:55;9.65;;;6.05;;
20283;SDS011;10301;50.832;4.080;2023-04-21T13:44:21;10.93;;;5.72;;
20283;SDS011;10301;50.832;4.080;2023-04-21T13:46:46;9.88;;;5.63;;
20283;SDS011;10301;50.832;4.080;2023-04-21T13:49:12;9.90;;;5.20;;
20283;SDS011;10301;50.832;4.080;2023-04-21T13:51:38;7.75;;;5.13;;
20283;SDS011;10301;50.832;4.080;2023-04-21T13:54:03;11.50;;;6.75;;
20283;SDS011;10301;50.832;4.080;2023-04-21T13:56:29;9.95;;;5.78;;
20283;SDS011;10301;50.832;4.080;2023-04-21T13:58:55;9.23;;;5.72;;
20283;SDS011;10301;50.832;4.080;2023-04-21T14:01:21;12.43;;;5.25;;
20283;SDS011;10301;50.832;4.080;2023-04-21T14:03:47;9.73;;;5.55;;
20283;SDS011;10301;50.832;4.080;2023-04-21T14:06:13;9.93;;;5.93;;
20283;SDS011;10301;50.832;4.080;2023-04-21T14:08:38;9.25;;;5.78;;
20283;SDS011;10301;50.832;4.080;2023-04-21T14:11:04;9.52;;;6.07;;
20283;SDS011;10301;50.832;4.080;2023-04-21T14:13:30;9.85;;;6.55;;
20283;SDS011;10301;50.832;4.080;2023-04-21T14:15:56;11.40;;;7.80;;
20283;SDS011;10301;50.832;4.080;2023-04-21T14:18:22;11.75;;;8.10;;
20283;SDS011;10301;50.832;4.080;2023-04-21T14:20:52;15.50;;;8.65;;
20283;SDS011;10301;50.832;4.080;2023-04-21T14:23:17;11.80;;;7.95;;
20283;SDS011;10301;50.832;4.080;2023-04-21T14:25:43;12.13;;;8.15;;
20283;SDS011;10301;50.832;4.080;2023-04-21T14:28:08;13.57;;;9.13;;
20283;SDS011;10301;50.832;4.080;2023-04-21T14:30:34;12.48;;;8.35;;
20283;SDS011;10301;50.832;4.080;2023-04-21T14:33:00;14.35;;;7.53;;
20283;SDS011;10301;50.832;4.080;2023-04-21T14:35:27;10.15;;;7.63;;
20283;SDS011;10301;50.832;4.080;2023-04-21T14:37:53;11.73;;;7.60;;
20283;SDS011;10301;50.832;4.080;2023-04-21T14:40:18;10.57;;;6.85;;
20283;SDS011;10301;50.832;4.080;2023-04-21T14:42:44;11.73;;;7.22;;
20283;SDS011;10301;50.832;4.080;2023-04-21T14:45:10;10.00;;;6.13;;
20283;SDS011;10301;50.832;4.080;2023-04-21T14:47:36;9.07;;;6.70;;